Time;durP1;ratioP1;P1;durP2;ratioP2;P2;SDS_P1;SDS_P2;PMS_P1;PMS_P2;Temp;Humidity;BMP_temperature;BMP_pressure;BME280_temperature;BME280_humidity;BME280_pressure;Samples;Min_cycle;Max_cycle;Signal;HPM_P1;HPM_P2
2021/03/09 00:00:18;;;;;;;7.32;1.73;;;;;;;-0.80;58.61;101151.91;5072693;28;20063;-84
2021/03/09 00:02:43;;;;;;;5.80;1.80;;;;;;;-0.75;57.44;101142.75;5072828;28;20025;-84
2021/03/09 00:05:09;;;;;;;4.53;1.60;;;;;;;-0.79;58.34;101150.22;5072508;28;20024;-84
2021/03/09 00:07:34;;;;;;;5.55;1.65;;;;;;;-0.68;58.41;101148.06;5072530;28;20021;-84
2021/03/09 00:10:00;;;;;;;5.13;1.80;;;;;;;-0.64;58.17;101144.84;5072297;28;20427;-84
2021/03/09 00:12:25;;;;;;;5.95;1.67;;;;;;;-0.70;59.17;101148.03;5072494;28;20032;-84
2021/03/09 00:14:51;;;;;;;7.45;1.80;;;;;;;-0.80;59.10;101144.28;5074011;28;20095;-84
2021/03/09 00:17:16;;;;;;;5.28;1.92;;;;;;;-0.83;59.42;101145.81;5073655;28;20071;-84
2021/03/09 00:19:41;;;;;;;5.57;1.70;;;;;;;-0.89;59.19;101141.38;5078355;28;20036;-84
2021/03/09 00:22:07;;;;;;;5.57;1.63;;;;;;;-0.91;60.01;101140.44;5076925;28;20365;-84
2021/03/09 00:24:32;;;;;;;5.88;1.80;;;;;;;-0.94;59.84;101147.97;5077871;28;20036;-85
2021/03/09 00:26:57;;;;;;;9.10;1.88;;;;;;;-0.91;60.43;101137.91;5076773;28;20031;-85
2021/03/09 00:29:23;;;;;;;6.10;1.80;;;;;;;-0.98;60.31;101143.59;5077936;28;20048;-84
2021/03/09 00:31:48;;;;;;;8.25;2.05;;;;;;;-1.00;61.65;101146.06;5076699;28;20477;-84
2021/03/09 00:34:13;;;;;;;7.18;1.98;;;;;;;-1.00;60.82;101135.00;5077060;28;20110;-84
2021/03/09 00:36:39;;;;;;;6.38;1.83;;;;;;;-0.99;60.94;101132.50;5076261;28;20021;-84
2021/03/09 00:39:04;;;;;;;6.07;1.90;;;;;;;-1.01;60.46;101130.75;5076432;28;20072;-84
2021/03/09 00:41:30;;;;;;;4.55;1.48;;;;;;;-1.00;60.93;101132.47;5076508;28;20021;-84
2021/03/09 00:43:55;;;;;;;4.88;1.65;;;;;;;-1.05;60.91;101131.41;5077890;28;20081;-85
2021/03/09 00:46:20;;;;;;;7.00;1.40;;;;;;;-1.02;60.87;101123.91;5077689;28;20021;-84
2021/03/09 00:48:45;;;;;;;7.10;1.85;;;;;;;-1.03;61.18;101120.47;5075934;28;20036;-85
2021/03/09 00:51:11;;;;;;;7.72;2.00;;;;;;;-1.03;60.45;101117.06;5075496;28;20020;-85
2021/03/09 00:53:36;;;;;;;8.32;2.17;;;;;;;-1.05;60.71;101124.63;5076714;28;20032;-85
2021/03/09 00:56:02;;;;;;;4.45;1.63;;;;;;;-1.05;60.78;101113.59;5075495;28;20434;-85
2021/03/09 00:58:27;;;;;;;6.30;1.60;;;;;;;-0.98;59.37;101116.44;5076769;28;20024;-85
2021/03/09 01:00:53;;;;;;;5.50;1.90;;;;;;;-1.02;60.33;101108.63;5075549;28;20028;-85
2021/03/09 01:03:18;;;;;;;5.10;1.80;;;;;;;-1.01;59.71;101113.78;5075427;28;20028;-85
2021/03/09 01:05:43;;;;;;;5.70;1.83;;;;;;;-1.02;60.58;101106.06;5075617;28;20396;-85
2021/03/09 01:08:09;;;;;;;4.70;1.52;;;;;;;-1.01;60.09;101102.75;5075714;28;20111;-84
2021/03/09 01:10:35;;;;;;;3.97;1.50;;;;;;;-1.00;60.10;101104.47;5076955;28;20107;-84
2021/03/09 01:13:00;;;;;;;6.15;1.88;;;;;;;-0.99;59.84;101096.00;5075383;28;20017;-84
2021/03/09 01:15:26;;;;;;;6.55;2.00;;;;;;;-0.97;60.05;101092.72;5075556;28;20043;-84
2021/03/09 01:17:51;;;;;;;6.03;1.70;;;;;;;-0.98;59.99;101093.53;5075302;28;20111;-84
2021/03/09 01:20:17;;;;;;;6.68;1.75;;;;;;;-0.97;59.98;101092.72;5076404;28;20031;-84
2021/03/09 01:22:42;;;;;;;7.45;1.55;;;;;;;-1.00;60.05;101090.06;5075740;28;20048;-84
2021/03/09 01:25:08;;;;;;;6.72;1.85;;;;;;;-0.97;60.23;101087.63;5075355;28;20017;-84
2021/03/09 01:27:33;;;;;;;5.38;1.75;;;;;;;-0.99;60.74;101088.38;5075839;28;20097;-84
2021/03/09 01:29:58;;;;;;;6.18;1.90;;;;;;;-1.00;60.08;101072.22;5075103;28;20031;-84
2021/03/09 01:32:24;;;;;;;7.70;2.20;;;;;;;-1.00;60.70;101073.91;5075418;28;20074;-84
2021/03/09 01:34:50;;;;;;;5.20;1.80;;;;;;;-0.93;60.22;101071.63;5075332;28;20455;-84
2021/03/09 01:37:15;;;;;;;6.70;1.50;;;;;;;-0.94;60.06;101072.47;5074885;28;20031;-84
2021/03/09 01:39:40;;;;;;;5.32;1.55;;;;;;;-0.92;59.41;101067.44;5076432;28;20024;-84
2021/03/09 01:42:06;;;;;;;4.47;1.17;;;;;;;-0.94;59.82;101063.97;5074983;28;20024;-84
2021/03/09 01:44:31;;;;;;;5.88;1.70;;;;;;;-0.95;59.53;101062.22;5076071;28;20056;-84
2021/03/09 01:47:00;;;;;;;6.75;1.73;;;;;;;-0.93;58.84;101053.81;5075212;28;20489;-84
2021/03/09 01:49:26;;;;;;;7.22;1.50;;;;;;;-0.93;59.47;101050.41;5074930;28;20020;-84
2021/03/09 01:51:52;;;;;;;4.45;1.30;;;;;;;-0.93;59.83;101050.41;5074677;28;20016;-84
2021/03/09 01:54:17;;;;;;;4.90;1.45;;;;;;;-0.93;59.61;101048.72;5075813;28;20392;-84
2021/03/09 01:56:43;;;;;;;4.75;1.48;;;;;;;-0.93;58.12;101033.44;5074443;28;20473;-84
2021/03/09 01:59:09;;;;;;;4.93;1.70;;;;;;;-0.91;59.16;101030.97;5074678;28;20029;-84
2021/03/09 02:01:35;;;;;;;4.32;1.50;;;;;;;-0.90;59.29;101036.91;5075936;28;20020;-84
2021/03/09 02:04:01;;;;;;;4.45;1.65;;;;;;;-0.89;58.69;101036.09;5075634;28;20020;-84
2021/03/09 02:06:26;;;;;;;5.63;1.50;;;;;;;-0.89;58.83;101031.91;5074591;28;20400;-84
2021/03/09 02:08:53;;;;;;;4.05;1.40;;;;;;;-0.89;59.14;101026.81;5074460;28;20016;-84
2021/03/09 02:11:36;;;;;;;4.15;1.10;;;;;;;-0.90;58.88;101029.28;5074193;28;20021;-84
2021/03/09 02:14:08;;;;;;;4.53;1.33;;;;;;;-0.86;59.11;101026.03;5073999;28;20412;-84
2021/03/09 02:16:43;;;;;;;5.45;1.38;;;;;;;-0.85;59.10;101023.56;5074163;28;20377;-84
2021/03/09 02:19:39;;;;;;;7.38;1.45;;;;;;;-0.87;58.52;101026.84;5074053;28;20108;-84
2021/03/09 02:22:50;;;;;;;5.78;1.60;;;;;;;-0.89;59.04;101026.81;5074196;28;20020;-84
2021/03/09 02:25:51;;;;;;;5.22;1.50;;;;;;;-0.87;58.96;101019.22;5073624;28;20028;-84
2021/03/09 02:28:43;;;;;;;7.63;1.30;;;;;;;-0.87;58.91;101020.06;5073920;28;20507;-85
2021/03/09 02:31:08;;;;;;;7.07;1.42;;;;;;;-0.87;59.50;101007.34;5073829;28;20040;-85
2021/03/09 02:33:39;;;;;;;6.72;1.60;;;;;;;-0.84;59.18;101011.69;5073845;28;20017;-85
2021/03/09 02:36:26;;;;;;;3.75;1.30;;;;;;;-0.82;58.77;101012.63;5074907;28;20026;-85
2021/03/09 02:39:01;;;;;;;4.25;1.27;;;;;;;-0.86;59.17;101000.56;5074361;28;20031;-85
2021/03/09 02:41:29;;;;;;;4.65;1.40;;;;;;;-0.85;59.35;100997.22;5073905;28;20032;-85
2021/03/09 02:43:55;;;;;;;4.00;1.25;;;;;;;-0.83;59.51;100995.56;5074208;28;20380;-85
2021/03/09 02:46:24;;;;;;;6.70;1.73;;;;;;;-0.81;59.57;100993.97;5073635;28;20028;-85
2021/03/09 02:48:51;;;;;;;5.45;1.65;;;;;;;-0.81;59.63;100993.97;5074732;28;20031;-85
2021/03/09 02:51:18;;;;;;;4.20;1.23;;;;;;;-0.75;58.90;100996.72;5073236;28;20067;-85
2021/03/09 02:53:49;;;;;;;3.83;1.20;;;;;;;-0.67;58.32;100991.91;5073373;28;20020;-85
2021/03/09 02:56:16;;;;;;;5.25;1.48;;;;;;;-0.72;58.25;100995.13;5073333;28;20021;-85
2021/03/09 02:58:46;;;;;;;3.42;1.00;;;;;;;-0.72;59.55;100987.50;5073357;28;20082;-85
2021/03/09 03:01:13;;;;;;;4.75;1.25;;;;;;;-0.70;58.61;100988.44;5074766;28;20019;-85
2021/03/09 03:03:41;;;;;;;3.70;1.20;;;;;;;-0.70;58.15;100978.25;5073258;28;20024;-85
2021/03/09 03:06:08;;;;;;;5.20;1.33;;;;;;;-0.66;58.87;100981.75;5074623;28;20029;-85
2021/03/09 03:08:35;;;;;;;4.70;1.40;;;;;;;-0.63;58.02;100981.00;5073067;28;20024;-85
2021/03/09 03:11:02;;;;;;;6.13;1.35;;;;;;;-0.65;58.70;100980.06;5073039;28;20031;-85
2021/03/09 03:13:28;;;;;;;4.22;1.20;;;;;;;-0.57;58.49;100979.53;5073165;28;20081;-85
2021/03/09 03:15:55;;;;;;;4.60;1.20;;;;;;;-0.60;58.27;100978.56;5072544;28;20032;-85
2021/03/09 03:18:21;;;;;;;3.67;1.10;;;;;;;-0.54;57.55;100979.63;5072988;28;20025;-85
2021/03/09 03:20:48;;;;;;;5.63;1.40;;;;;;;-0.50;58.09;100970.41;5074017;28;20095;-85
2021/03/09 03:23:15;;;;;;;4.30;1.42;;;;;;;-0.40;57.07;100975.00;5073070;28;20073;-85
2021/03/09 03:25:42;;;;;;;5.30;1.48;;;;;;;-0.43;56.74;100963.81;5072581;28;20504;-84
2021/03/09 03:28:08;;;;;;;4.53;1.30;;;;;;;-0.45;57.71;100968.88;5073095;28;20036;-84
2021/03/09 03:30:34;;;;;;;6.72;1.73;;;;;;;-0.36;56.91;100966.63;5073117;28;20051;-84
2021/03/09 03:33:00;;;;;;;5.72;1.20;;;;;;;-0.32;57.51;100965.91;5074121;28;20476;-84
2021/03/09 03:35:26;;;;;;;5.57;1.70;;;;;;;-0.30;57.05;100968.50;5072833;28;20028;-84
2021/03/09 03:37:52;;;;;;;7.35;1.58;;;;;;;-0.41;59.37;100975.78;5074201;28;20082;-84
2021/03/09 03:40:19;;;;;;;4.72;1.38;;;;;;;-0.35;58.63;100965.81;5072744;28;20476;-84
2021/03/09 03:42:46;;;;;;;5.97;1.55;;;;;;;-0.29;58.48;100966.00;5072632;28;20461;-84
2021/03/09 03:45:13;;;;;;;4.90;1.23;;;;;;;-0.36;58.96;100958.97;5072884;28;20024;-84
2021/03/09 03:47:39;;;;;;;4.38;1.45;;;;;;;-0.35;60.04;100965.81;5074138;28;20028;-84
2021/03/09 03:50:08;;;;;;;4.80;1.45;;;;;;;-0.39;60.54;100961.44;5072975;28;20032;-84
2021/03/09 03:52:48;;;;;;;4.75;1.48;;;;;;;-0.40;60.17;100964.81;5072335;28;20111;-85
2021/03/09 03:55:25;;;;;;;5.70;1.40;;;;;;;-0.48;61.74;100956.03;5072636;28;20025;-85
2021/03/09 03:57:54;;;;;;;8.57;1.63;;;;;;;-0.45;61.75;100953.59;5072401;28;20032;-85
2021/03/09 04:00:21;;;;;;;5.68;1.65;;;;;;;-0.49;62.37;100950.06;5073613;28;20100;-84
2021/03/09 04:02:49;;;;;;;4.38;1.40;;;;;;;-0.50;62.87;100945.78;5073622;28;20039;-84
2021/03/09 04:05:16;;;;;;;5.10;1.40;;;;;;;-0.53;61.75;100949.91;5073718;28;20032;-85
2021/03/09 04:07:42;;;;;;;4.38;1.40;;;;;;;-0.57;61.17;100948.94;5072377;28;20473;-84
2021/03/09 04:10:08;;;;;;;4.53;1.08;;;;;;;-0.57;61.04;100945.53;5073627;28;20028;-84
2021/03/09 04:12:34;;;;;;;5.38;1.20;;;;;;;-0.59;62.48;100944.63;5072650;28;20027;-84
2021/03/09 04:15:00;;;;;;;5.18;1.33;;;;;;;-0.62;62.15;100939.41;5072103;28;20059;-84
2021/03/09 04:17:27;;;;;;;3.97;1.23;;;;;;;-0.65;61.78;100949.50;5072382;28;20056;-84
2021/03/09 04:19:54;;;;;;;5.05;1.38;;;;;;;-0.66;62.31;100945.25;5072851;28;20422;-85
2021/03/09 04:22:21;;;;;;;4.07;1.30;;;;;;;-0.66;62.43;100938.47;5073303;28;20027;-85
2021/03/09 04:24:49;;;;;;;5.00;1.33;;;;;;;-0.61;61.85;100942.03;5072318;28;20040;-84
2021/03/09 04:27:21;;;;;;;6.65;1.40;;;;;;;-0.59;61.30;100942.06;5072290;28;20027;-84
2021/03/09 04:29:58;;;;;;;6.80;1.55;;;;;;;-0.58;61.46;100943.81;5072484;28;20060;-84
2021/03/09 04:32:25;;;;;;;7.80;1.60;;;;;;;-0.56;61.50;100940.47;5072941;28;20040;-84
2021/03/09 04:34:50;;;;;;;5.03;1.48;;;;;;;-0.61;61.97;100939.47;5072751;28;20029;-84
2021/03/09 04:37:17;;;;;;;5.80;1.52;;;;;;;-0.68;62.00;100942.63;5073553;28;20560;-84
2021/03/09 04:39:43;;;;;;;8.15;1.83;;;;;;;-0.70;62.64;100946.81;5073707;28;20031;-84
2021/03/09 04:42:09;;;;;;;8.38;1.95;;;;;;;-0.78;62.11;100951.63;5072122;28;20021;-84
2021/03/09 04:44:35;;;;;;;6.35;1.30;;;;;;;-0.74;62.40;100944.97;5072457;28;20089;-84
2021/03/09 04:47:02;;;;;;;7.68;1.58;;;;;;;-0.83;63.63;100949.75;5072409;28;20052;-84
2021/03/09 04:49:27;;;;;;;9.88;1.67;;;;;;;-0.85;65.29;100952.25;5072279;28;20480;-84
2021/03/09 04:51:53;;;;;;;7.95;1.33;;;;;;;-0.98;64.61;100955.19;5072274;28;20036;-84
2021/03/09 04:54:18;;;;;;;6.30;1.88;;;;;;;-1.01;65.45;100952.53;5072015;28;20066;-84
2021/03/09 04:56:44;;;;;;;4.90;1.40;;;;;;;-1.06;66.17;100954.91;5072033;28;20392;-84
2021/03/09 04:59:09;;;;;;;4.40;1.40;;;;;;;-1.12;66.40;100946.19;5073263;28;20020;-84
2021/03/09 05:01:34;;;;;;;8.95;1.90;;;;;;;-1.18;66.61;100952.78;5072010;28;20012;-84
2021/03/09 05:04:00;;;;;;;6.80;1.67;;;;;;;-1.21;67.65;100952.69;5072670;28;20146;-84
2021/03/09 05:06:25;;;;;;;6.43;1.70;;;;;;;-1.32;68.99;100954.00;5075575;28;20024;-85
2021/03/09 05:08:50;;;;;;;5.05;1.30;;;;;;;-1.33;71.56;100952.25;5075325;28;20463;-85
2021/03/09 05:11:16;;;;;;;6.10;1.60;;;;;;;-1.41;72.18;100961.31;5075155;28;20059;-85
2021/03/09 05:13:41;;;;;;;6.22;1.75;;;;;;;-1.47;73.48;100954.31;5075247;28;20070;-85
2021/03/09 05:16:06;;;;;;;8.90;1.77;;;;;;;-1.57;74.90;100951.34;5075449;28;20404;-84
2021/03/09 05:18:31;;;;;;;6.15;1.60;;;;;;;-1.61;75.13;100958.00;5075356;28;20016;-84
2021/03/09 05:20:57;;;;;;;9.73;2.00;;;;;;;-1.73;75.66;100955.84;5076493;28;20033;-84
2021/03/09 05:23:22;;;;;;;5.32;1.75;;;;;;;-1.77;77.43;100953.16;5076562;28;20507;-84
2021/03/09 05:25:47;;;;;;;8.05;1.77;;;;;;;-1.86;79.01;100952.00;5075398;28;20107;-84
2021/03/09 05:28:13;;;;;;;6.00;1.80;;;;;;;-1.91;79.86;100956.06;5074965;28;20021;-85
2021/03/09 05:30:38;;;;;;;7.05;1.83;;;;;;;-2.00;81.27;100949.72;5076360;28;20028;-85
2021/03/09 05:33:03;;;;;;;7.55;1.83;;;;;;;-2.05;82.64;100956.31;5075021;28;20028;-84
2021/03/09 05:35:29;;;;;;;6.22;2.25;;;;;;;-2.13;83.73;100953.47;5074906;28;20020;-84
2021/03/09 05:37:54;;;;;;;7.68;2.50;;;;;;;-2.20;84.80;100951.50;5075004;28;20480;-84
2021/03/09 05:40:20;;;;;;;6.57;2.10;;;;;;;-2.33;85.53;100952.69;5074712;28;20115;-84
2021/03/09 05:42:54;;;;;;;6.65;2.38;;;;;;;-2.28;86.54;100952.84;5074858;28;20017;-84
2021/03/09 05:45:21;;;;;;;9.48;2.35;;;;;;;-2.30;87.65;100944.31;5074636;28;20484;-84
2021/03/09 05:47:47;;;;;;;9.60;2.20;;;;;;;-2.36;87.70;100950.03;5075786;28;20071;-84
2021/03/09 05:50:14;;;;;;;10.60;2.28;;;;;;;-2.43;88.28;100948.00;5074589;28;20487;-85
2021/03/09 05:52:41;;;;;;;7.25;2.90;;;;;;;-2.49;88.85;100947.78;5075910;28;20024;-85
2021/03/09 05:55:08;;;;;;;9.35;2.17;;;;;;;-2.46;89.93;100947.88;5074362;28;20032;-85
2021/03/09 05:57:33;;;;;;;6.32;2.10;;;;;;;-2.54;90.13;100950.13;5074699;28;20027;-85
2021/03/09 05:59:59;;;;;;;10.43;2.63;;;;;;;-2.51;89.91;100952.81;5074470;28;20025;-85
2021/03/09 06:02:24;;;;;;;6.43;2.17;;;;;;;-2.57;90.00;100944.94;5074607;28;20028;-85
2021/03/09 06:04:50;;;;;;;6.70;1.60;;;;;;;-2.73;90.80;100948.50;5074686;28;20083;-84
2021/03/09 06:07:18;;;;;;;9.27;2.30;;;;;;;-2.72;91.32;100954.44;5075852;28;20028;-84
2021/03/09 06:09:45;;;;;;;8.93;2.88;;;;;;;-2.70;91.95;100952.84;5075663;28;20063;-85
2021/03/09 06:12:24;;;;;;;9.15;2.30;;;;;;;-2.71;92.33;100958.72;5075436;28;20025;-85
2021/03/09 06:14:56;;;;;;;8.13;2.60;;;;;;;-2.78;92.04;100960.13;5074428;28;20404;-85
2021/03/09 06:17:40;;;;;;;6.18;2.22;;;;;;;-2.71;92.18;100956.19;5076071;28;20024;-85
2021/03/09 06:20:07;;;;;;;11.27;2.60;;;;;;;-2.70;92.72;100956.25;5075329;28;20492;-84
2021/03/09 06:22:44;;;;;;;9.80;2.95;;;;;;;-2.71;93.06;100962.16;5076087;28;20024;-84
2021/03/09 06:25:11;;;;;;;6.05;2.63;;;;;;;-2.68;93.39;100958.84;5074162;28;20016;-84
2021/03/09 06:27:37;;;;;;;13.25;2.70;;;;;;;-2.71;93.68;100954.53;5075560;28;20587;-84
2021/03/09 06:30:06;;;;;;;8.25;2.58;;;;;;;-2.67;93.97;100943.69;5074023;28;20063;-84
2021/03/09 06:32:43;;;;;;;10.88;2.47;;;;;;;-2.68;94.02;100953.75;5074723;28;20023;-84
2021/03/09 06:35:27;;;;;;;8.50;2.65;;;;;;;-2.57;94.54;100940.72;5075223;28;20037;-84
2021/03/09 06:37:52;;;;;;;8.55;2.80;;;;;;;-2.61;94.35;100943.94;5075174;28;20350;-85
2021/03/09 06:40:18;;;;;;;8.32;2.97;;;;;;;-2.53;94.43;100943.38;5076099;28;20020;-85
2021/03/09 06:42:43;;;;;;;9.95;3.05;;;;;;;-2.46;94.32;100947.88;5076277;28;20032;-85
2021/03/09 06:45:11;;;;;;;7.97;2.72;;;;;;;-2.56;94.90;100942.44;5074576;28;20020;-84
2021/03/09 06:47:42;;;;;;;8.82;2.55;;;;;;;-2.41;94.79;100943.88;5074472;28;20029;-85
2021/03/09 06:50:11;;;;;;;9.75;2.47;;;;;;;-2.41;94.86;100943.88;5075095;28;20117;-85
2021/03/09 06:52:37;;;;;;;11.10;3.22;;;;;;;-2.37;94.87;100950.81;5073887;28;20036;-85
2021/03/09 06:55:05;;;;;;;8.70;2.80;;;;;;;-2.50;94.80;100946.91;5075640;28;20035;-84
2021/03/09 06:57:31;;;;;;;11.27;3.90;;;;;;;-2.44;95.02;100944.63;5075098;28;20047;-84
2021/03/09 06:59:56;;;;;;;7.57;2.47;;;;;;;-2.49;95.06;100946.13;5075310;28;20480;-85
2021/03/09 07:02:26;;;;;;;7.75;2.55;;;;;;;-2.46;95.08;100942.81;5075044;28;20556;-85
2021/03/09 07:04:54;;;;;;;10.90;3.42;;;;;;;-2.40;94.90;100943.06;5077581;28;20385;-84
2021/03/09 07:07:40;;;;;;;10.10;3.25;;;;;;;-2.46;95.39;100938.63;5076067;28;20051;-84
2021/03/09 07:10:20;;;;;;;8.95;3.20;;;;;;;-2.36;95.23;100943.25;5077178;28;20032;-84
2021/03/09 07:12:49;;;;;;;10.52;3.80;;;;;;;-2.33;94.74;100942.53;5075350;28;20020;-84
2021/03/09 07:15:17;;;;;;;10.05;2.92;;;;;;;-2.21;95.11;100942.16;5074282;28;20049;-85
2021/03/09 07:17:43;;;;;;;10.10;2.20;;;;;;;-2.56;95.04;100937.34;5074737;28;20093;-84
2021/03/09 07:20:13;;;;;;;14.55;5.18;;;;;;;-2.45;95.22;100940.34;5077570;28;20024;-84
2021/03/09 07:22:39;;;;;;;13.88;3.47;;;;;;;-2.44;95.25;100941.22;5075826;28;20090;-84
2021/03/09 07:25:14;;;;;;;6.38;2.08;;;;;;;-2.55;95.07;100934.03;5076859;28;20027;-85
2021/03/09 07:27:48;;;;;;;17.83;6.03;;;;;;;-2.46;94.88;100943.72;5075066;28;20028;-84
2021/03/09 07:30:15;;;;;;;7.65;2.85;;;;;;;-2.39;95.00;100937.19;5076052;28;20032;-84
2021/03/09 07:32:46;;;;;;;4.63;1.95;;;;;;;-2.47;94.95;100930.94;5074190;28;20034;-86
2021/03/09 07:35:12;;;;;;;8.40;2.78;;;;;;;-2.48;95.50;100929.22;5073391;28;20074;-85
2021/03/09 07:37:39;;;;;;;13.60;2.53;;;;;;;-2.39;96.02;100924.50;5073351;28;20021;-86
2021/03/09 07:40:07;;;;;;;9.30;3.60;;;;;;;-2.31;95.71;100933.28;5074560;28;20024;-86
2021/03/09 07:42:32;;;;;;;8.65;3.00;;;;;;;-2.32;95.98;100927.31;5073077;28;20027;-86
2021/03/09 07:44:58;;;;;;;10.07;4.13;;;;;;;-2.23;96.01;100931.91;5072970;28;20024;-85
2021/03/09 07:47:24;;;;;;;7.50;2.97;;;;;;;-2.23;95.85;100931.91;5075621;28;20021;-86
2021/03/09 07:49:53;;;;;;;6.00;2.55;;;;;;;-2.29;95.75;100931.66;5072688;28;20158;-86
2021/03/09 07:52:31;;;;;;;8.85;2.45;;;;;;;-2.31;95.50;100912.94;5073189;28;20370;-86
2021/03/09 07:55:05;;;;;;;10.82;3.58;;;;;;;-2.22;96.18;100926.00;5073874;28;20031;-84
2021/03/09 07:57:42;;;;;;;4.55;1.90;;;;;;;-2.26;96.39;100923.31;5074386;28;20028;-86
2021/03/09 08:00:20;;;;;;;9.95;4.22;;;;;;;-2.21;96.48;100922.69;5074572;28;20050;-86
2021/03/09 08:02:55;;;;;;;7.13;3.45;;;;;;;-2.18;96.38;100930.44;5073255;28;20031;-86
2021/03/09 08:05:29;;;;;;;11.40;4.90;;;;;;;-2.18;96.75;100925.34;5073247;28;20085;-86
2021/03/09 08:08:22;;;;;;;10.65;3.08;;;;;;;-2.17;96.61;100927.06;5072557;28;20046;-85
2021/03/09 08:10:56;;;;;;;10.98;4.38;;;;;;;-2.11;96.94;100926.44;5074279;28;20086;-86
2021/03/09 08:13:58;;;;;;;14.98;4.53;;;;;;;-2.15;96.60;100924.59;5070819;28;20496;-86
2021/03/09 08:16:36;;;;;;;9.25;2.72;;;;;;;-2.16;96.61;100917.75;5073887;28;20043;-86
2021/03/09 08:19:42;;;;;;;10.80;2.55;;;;;;;-2.17;96.47;100924.53;5073533;28;20532;-86
2021/03/09 08:22:07;;;;;;;;;;;;;;;-2.08;96.54;100926.56;5073877;28;20403;-86
2021/03/09 08:24:42;;;;;;;10.02;2.53;;;;;;;-2.06;96.71;100926.59;5072611;28;19915;-86
2021/03/09 08:27:27;;;;;;;;;;;;;;;-1.95;96.39;100915.19;5072309;28;20039;-86
2021/03/09 08:29:52;;;;;;;7.70;3.22;;;;;;;-1.98;97.04;100923.56;5063272;28;20407;-86
2021/03/09 08:32:24;;;;;;;13.63;5.38;;;;;;;-1.94;96.84;100927.06;5072647;28;20029;-86
2021/03/09 08:34:50;;;;;;;16.15;4.65;;;;;;;-1.96;96.95;100921.97;5072662;28;20064;-87
2021/03/09 08:37:29;;;;;;;6.10;2.00;;;;;;;-2.06;97.28;100909.72;5074488;28;20036;-87
2021/03/09 08:40:14;;;;;;;15.75;5.70;;;;;;;-2.02;97.54;100911.56;5074763;28;20445;-87
2021/03/09 08:42:58;;;;;;;;;;;;;;;-1.91;97.08;100911.94;5078296;28;20020;-86
2021/03/09 08:45:55;;;;;;;7.57;3.30;;;;;;;-2.05;97.25;100910.56;5076522;28;19998;-87
2021/03/09 08:48:47;;;;;;;9.35;3.17;;;;;;;-2.06;97.45;100911.34;5076589;28;20048;-86
2021/03/09 08:51:44;;;;;;;13.02;4.70;;;;;;;-1.96;97.29;100923.63;5078120;28;20373;-86
2021/03/09 08:54:41;;;;;;;6.47;2.63;;;;;;;-1.96;97.55;100921.09;5076209;28;20029;-86
2021/03/09 08:57:13;;;;;;;12.75;4.47;;;;;;;-1.95;97.38;100917.72;5056312;28;20037;-86
2021/03/09 08:59:41;;;;;;;4.43;2.03;;;;;;;-1.84;96.66;100911.38;5076226;28;20067;-86
2021/03/09 09:02:06;;;;;;;13.23;4.95;;;;;;;-1.79;96.54;100909.88;5076573;28;20115;-86
2021/03/09 09:04:32;;;;;;;13.77;6.03;;;;;;;-1.75;96.25;100901.56;5076700;28;20055;-86
2021/03/09 09:07:15;;;;;;;14.95;6.93;;;;;;;-1.76;96.92;100915.06;5076278;28;20024;-87
2021/03/09 09:09:40;;;;;;;21.42;6.30;;;;;;;-1.62;96.45;100905.41;5075779;28;20021;-86
2021/03/09 09:12:39;;;;;;;13.40;6.32;;;;;;;-1.51;95.45;100911.78;5075607;28;20082;-86
2021/03/09 09:15:09;;;;;;;11.93;5.18;;;;;;;-1.52;95.67;100892.22;5032858;28;20063;-86
2021/03/09 09:17:37;;;;;;;14.65;4.03;;;;;;;-1.53;95.76;100907.44;5076905;28;20025;-86
2021/03/09 09:20:10;;;;;;;12.98;7.07;;;;;;;-1.47;95.79;100907.66;5076937;28;20024;-86
2021/03/09 09:22:35;;;;;;;8.30;3.70;;;;;;;-1.49;95.24;100906.72;5076318;28;20063;-87
2021/03/09 09:25:13;;;;;;;12.88;5.88;;;;;;;-1.49;95.56;100901.63;5076432;28;20472;-87
2021/03/09 09:27:44;;;;;;;8.80;3.47;;;;;;;-1.55;94.46;100909.91;5076149;28;20439;-87
2021/03/09 09:30:13;;;;;;;12.77;3.50;;;;;;;-1.50;95.13;100913.50;5075667;28;20025;-87
2021/03/09 09:32:44;;;;;;;16.23;4.88;;;;;;;-1.48;94.68;100911.88;5075020;28;20480;-85
2021/03/09 09:35:10;;;;;;;15.65;6.35;;;;;;;-1.35;94.93;100907.25;5075142;28;20032;-85
2021/03/09 09:37:44;;;;;;;10.57;3.90;;;;;;;-1.45;95.14;100901.81;5076266;28;20020;-86
2021/03/09 09:40:10;;;;;;;11.15;4.47;;;;;;;-1.37;94.75;100913.94;5074794;28;20021;-86
2021/03/09 09:42:36;;;;;;;11.23;5.15;;;;;;;-1.28;94.21;100909.19;5075934;28;20029;-86
2021/03/09 09:45:02;;;;;;;12.77;4.60;;;;;;;-1.26;94.28;100913.50;5074423;28;20031;-86
2021/03/09 09:47:27;;;;;;;12.32;5.05;;;;;;;-1.31;94.46;100917.56;5075880;28;20064;-86
2021/03/09 09:49:53;;;;;;;13.70;5.30;;;;;;;-1.22;94.68;100910.25;5074054;28;20082;-86
2021/03/09 09:52:19;;;;;;;8.35;3.95;;;;;;;-1.29;94.50;100920.13;5074408;28;20050;-86
2021/03/09 09:54:54;;;;;;;11.68;4.22;;;;;;;-1.30;94.77;100911.66;5075603;28;20071;-85
2021/03/09 09:57:23;;;;;;;12.15;6.20;;;;;;;-1.22;94.28;100914.47;5074394;28;20020;-85
2021/03/09 09:59:49;;;;;;;18.55;6.38;;;;;;;-1.14;94.72;100922.38;5074256;28;20031;-85
2021/03/09 10:02:19;;;;;;;13.27;6.10;;;;;;;-1.20;94.62;100912.84;5076045;28;20060;-85
2021/03/09 10:04:45;;;;;;;15.52;5.47;;;;;;;-1.07;94.67;100914.16;5075808;28;20025;-86
2021/03/09 10:07:15;;;;;;;12.43;5.57;;;;;;;-1.12;94.88;100902.94;5074582;28;20024;-85
2021/03/09 10:09:41;;;;;;;15.45;5.60;;;;;;;-1.06;94.66;100910.78;5074401;28;20381;-86
2021/03/09 10:12:07;;;;;;;13.10;5.75;;;;;;;-0.99;94.62;100912.72;5074450;28;20025;-85
2021/03/09 10:14:33;;;;;;;15.05;5.88;;;;;;;-1.04;94.54;100899.84;5075160;28;20028;-85
2021/03/09 10:16:59;;;;;;;12.93;5.72;;;;;;;-0.91;94.45;100905.34;5076316;28;20162;-85
2021/03/09 10:19:37;;;;;;;13.85;6.07;;;;;;;-0.92;94.20;100909.59;5074463;28;20020;-85
2021/03/09 10:22:03;;;;;;;12.07;5.30;;;;;;;-1.02;94.48;100907.53;5074538;28;20028;-84
2021/03/09 10:24:31;;;;;;;13.85;5.32;;;;;;;-0.95;93.77;100907.78;5074344;28;20021;-84
2021/03/09 10:26:57;;;;;;;13.55;5.55;;;;;;;-0.84;93.97;100905.59;5074448;28;20052;-85
2021/03/09 10:29:26;;;;;;;13.65;5.03;;;;;;;-0.98;93.86;100905.16;5075346;28;20027;-85
2021/03/09 10:31:51;;;;;;;8.07;3.47;;;;;;;-0.99;93.80;100905.06;5074045;28;20031;-85
2021/03/09 10:34:19;;;;;;;11.07;5.47;;;;;;;-0.75;92.74;100905.03;5075935;28;20032;-85
2021/03/09 10:36:48;;;;;;;14.38;6.32;;;;;;;-0.81;92.86;100913.34;5075628;28;20035;-84
2021/03/09 10:39:14;;;;;;;8.80;3.53;;;;;;;-0.84;92.46;100902.19;5075450;28;20028;-84
2021/03/09 10:41:39;;;;;;;12.50;4.47;;;;;;;-0.87;92.72;100907.19;5075020;28;20112;-84
2021/03/09 10:44:05;;;;;;;11.63;4.68;;;;;;;-0.79;92.43;100909.16;5076394;28;20104;-83
2021/03/09 10:46:34;;;;;;;11.38;5.13;;;;;;;-0.69;92.51;100910.34;5075126;28;20028;-83
2021/03/09 10:48:59;;;;;;;11.95;5.60;;;;;;;-0.67;92.42;100906.16;5074721;28;20024;-84
2021/03/09 10:51:24;;;;;;;11.77;4.70;;;;;;;-0.56;91.27;100898.88;5074201;28;20052;-84
2021/03/09 10:53:50;;;;;;;10.95;5.30;;;;;;;-0.54;91.47;100892.16;5073848;28;20071;-83
2021/03/09 10:56:15;;;;;;;11.65;4.70;;;;;;;-0.55;90.66;100896.38;5075790;28;20082;-83
2021/03/09 10:58:40;;;;;;;9.57;4.82;;;;;;;-0.52;90.19;100905.81;5075268;28;20066;-84
2021/03/09 11:01:05;;;;;;;10.23;4.90;;;;;;;-0.33;90.00;100903.03;5075888;28;20024;-84
2021/03/09 11:03:31;;;;;;;10.68;5.57;;;;;;;-0.27;89.36;100899.81;5077245;28;20020;-83
2021/03/09 11:05:56;;;;;;;9.43;4.32;;;;;;;-0.41;89.62;100901.03;5076055;28;20024;-83
2021/03/09 11:08:23;;;;;;;10.82;5.35;;;;;;;-0.49;89.70;100895.72;5075262;28;20024;-84
2021/03/09 11:10:51;;;;;;;15.73;4.78;;;;;;;-0.41;89.23;100895.94;5075639;28;20095;-85
2021/03/09 11:13:17;;;;;;;9.20;4.63;;;;;;;-0.33;88.63;100905.56;5073667;28;20033;-84
2021/03/09 11:15:42;;;;;;;11.85;4.68;;;;;;;-0.22;87.87;100899.94;5074163;28;20024;-84
2021/03/09 11:18:08;;;;;;;9.90;4.60;;;;;;;-0.46;88.15;100900.91;5074481;28;20062;-85
2021/03/09 11:20:33;;;;;;;11.60;4.90;;;;;;;-0.40;88.88;100903.66;5073891;28;20384;-84
2021/03/09 11:22:58;;;;;;;10.45;5.05;;;;;;;-0.31;88.18;100895.41;5073053;28;20028;-85
2021/03/09 11:25:26;;;;;;;12.82;4.80;;;;;;;-0.32;88.82;100897.09;5074291;28;20024;-84
2021/03/09 11:27:51;;;;;;;9.68;4.60;;;;;;;-0.21;88.61;100901.69;5073200;28;20481;-85
2021/03/09 11:30:17;;;;;;;10.38;4.10;;;;;;;-0.27;88.12;100894.69;5072873;28;20119;-85
2021/03/09 11:32:42;;;;;;;12.88;4.55;;;;;;;-0.22;87.74;100902.47;5073103;28;20388;-85